Terminal Aerodrome Forecast
Issued by NWS Amarillo, TX

Home | Current Version | Previous Version | Text Only | Print | Product List | Glossary On
Versions: 1 2 3 4 5 6 7 8 9 10 11 12 13 14 15 16 17 18 19 20
644
FTUS44 KAMA 201019 AAA
TAFGUY
TAF AMD
KGUY 201019Z 2010/2106 VRB06KT 3SM BR OVC002
     FM201100 25015KT P6SM FEW002
     FM201700 26022G32KT P6SM SCT035 BKN300
     FM210000 28010KT P6SM SCT300=

USA.gov is the U.S. government's official web portal to all federal, state and local government web resources and services.